Washington, DC (20536)

5:52 PM EST on March 05, 2015 (GMT -0500)
Eckington Pl, NE | Change Station
CLOSE
Current Station
Personal Weather Station
Location: Washington, DC
Elevation: 90 ft
Nearby Weather Stations
Active Advisory: Winter Storm Warning Active Notice: Public Information Statement

Elev 90 ft 38.91 °N, 77.01 °W | Updated 4 minutes ago

Snow
Snow
26.0 °F
Feels Like 19 °F
N
6.0
Wind Variable Wind from WNW
Gusts 13.0 mph

Today
High -- | Low -- °F
--% Chance of Precip.
Yesterday
High -- | Low -- °F
Precip. -- in
6:35 AM 6:04 PM
Full, 100% visible
Pressure 30.29 in
Visibility 1.8 miles
Clouds Scattered Clouds 1600 ft
Mostly Cloudy 2200 ft
Overcast 2900 ft
Windchill 19 °F
Dew Point 24 °F
Humidity 94%
Rainfall in
Snow Depth Not available.
UV 0 out of 12
Pollen .70 out of 12
Air Quality Not available.
Flu Activity Not available.
SPECI KDCA 052243Z 34016KT 1 3/4SM -SN SCT016 BKN022 OVC029 M02/M06 A3029 RMK AO2 PRESRR P0001

More Conditions Fewer Conditions

Pressure 30.29 in
Visibility 1.8 miles
Clouds Scattered Clouds 1600 ft
Mostly Cloudy 2200 ft
Overcast 2900 ft
Windchill 19 °F
Dew Point 24 °F
Humidity 94%
Rainfall in
Snow Depth Not available.
UV 0 out of 12
Pollen .70 out of 12
Air Quality Not available.
Flu Activity Not available.
SPECI KDCA 052243Z 34016KT 1 3/4SM -SN SCT016 BKN022 OVC029 M02/M06 A3029 RMK AO2 PRESRR P0001

More Conditions Fewer Conditions

10-Day Weather Forecast

Almanac

Astronomy

Mar. 05, 2015 Rise Set
Actual Time
Civil Twilight
Nautical Twilight
Astronomical Twilight
Moon
Length of Visible Light
Length of Day
Tomorrow will be .
, % of the Moon is Illuminated

Today's Extremes

State Highs State Lows

Community

WunderPhotos

Upload Photos

1,803,036 photos uploaded!

WunderBlogs® & News

Nearby

Air Quality

  Air Quality AQ Index Pollutant
Not available.

Snow Depth

Station Depth Elevation

Earthquake Activity

City Distance Mag. Time & Date
Minimum magnitude displayed is 2.5.

Coastal Water Temperatures

Place Temperature

Nearby Weather Stations

Winter Storm Warning
Statement as of 3:58 PM EST on March 05, 2015

... Winter Storm Warning remains in effect until 9 PM EST this
evening...

* precipitation types... snow... heavy at times.

* Accumulations... 4 to 8 inches of snow.

* Timing... the heaviest snow will be through 5 PM this afternoon.
Snow will end between 7 PM and 9 PM this evening.

* Temperatures... falling through the 20s.

* Winds... north 10 to 15 mph.

* Impacts... roads will remain snow covered and slippery.
Visibility will be reduced below one-quarter mile at times...
making traveling dangerous.

Precautionary/preparedness actions...

A Winter Storm Warning for heavy snow means severe winter weather
conditions are expected or occurring. Significant amounts of snow
are forecast that will make travel dangerous. Only travel in an
emergency. If you must travel... keep an extra flashlight...
food... and water in your vehicle in case of an emergency.